Time;durP1;ratioP1;P1;durP2;ratioP2;P2;SDS_P1;SDS_P2;PMS_P1;PMS_P2;Temp;Humidity;BMP_temperature;BMP_pressure;BME280_temperature;BME280_humidity;BME280_pressure;Samples;Min_cycle;Max_cycle;Signal;HPM_P1;HPM_P2
2023/02/05 00:01:40;;;;;;;2.13;1.47;;;;;;;1.70;100.00;100405.44;5031120;28;20108;-68
2023/02/05 00:04:07;;;;;;;2.40;1.63;;;;;;;1.77;100.00;100407.66;5036147;28;20045;-68
2023/02/05 00:06:32;;;;;;;2.20;1.50;;;;;;;1.67;100.00;100384.00;5050672;28;20075;-68
2023/02/05 00:08:57;;;;;;;2.28;1.70;;;;;;;1.85;100.00;100414.97;5049570;28;20434;-70
2023/02/05 00:11:23;;;;;;;2.38;1.60;;;;;;;1.83;100.00;100421.59;5050711;28;20029;-70
2023/02/05 00:13:49;;;;;;;2.95;1.70;;;;;;;1.60;100.00;100381.00;5050758;28;20025;-70
2023/02/05 00:16:19;;;;;;;2.10;1.67;;;;;;;1.79;100.00;100425.59;5050375;28;20053;-69
2023/02/05 00:18:45;;;;;;;3.13;1.80;;;;;;;1.72;100.00;100426.81;5049722;28;20040;-70
2023/02/05 00:21:12;;;;;;;2.97;1.80;;;;;;;1.78;100.00;100434.91;5049349;28;20037;-70
2023/02/05 00:23:39;;;;;;;3.23;1.90;;;;;;;1.67;100.00;100433.25;5048484;28;20044;-69
2023/02/05 00:26:05;;;;;;;2.67;1.63;;;;;;;1.59;100.00;100431.78;5048257;28;20072;-69
2023/02/05 00:28:32;;;;;;;3.07;1.93;;;;;;;1.62;100.00;100447.31;5051879;28;20029;-66
2023/02/05 00:30:58;;;;;;;4.97;2.13;;;;;;;1.50;100.00;100441.31;5051545;28;20028;-67
2023/02/05 00:33:23;;;;;;;2.60;1.53;;;;;;;1.47;100.00;100459.78;5036578;28;20110;-67
2023/02/05 00:35:49;;;;;;;3.10;2.03;;;;;;;1.48;100.00;100453.91;5051663;28;20449;-68
2023/02/05 00:38:15;;;;;;;3.37;1.93;;;;;;;1.47;100.00;100457.25;5051565;28;20029;-68
2023/02/05 00:40:41;;;;;;;3.60;2.10;;;;;;;1.26;100.00;100410.78;5051455;28;20028;-68
2023/02/05 00:43:08;;;;;;;4.57;2.43;;;;;;;1.20;100.00;100428.13;5051476;28;20395;-68
2023/02/05 00:45:34;;;;;;;4.90;2.50;;;;;;;1.44;100.00;100470.59;5045248;28;20033;-68
2023/02/05 00:48:08;;;;;;;3.80;2.20;;;;;;;1.48;100.00;100484.44;5051424;28;20029;-68
2023/02/05 00:50:35;;;;;;;3.83;2.40;;;;;;;1.03;100.00;100392.16;5038508;28;20033;-69
2023/02/05 00:53:00;;;;;;;4.17;2.30;;;;;;;1.34;100.00;100452.03;5008766;28;20033;-69
2023/02/05 00:55:26;;;;;;;4.10;2.80;;;;;;;1.41;100.00;100467.84;5008881;28;20111;-70
2023/02/05 00:57:51;;;;;;;3.10;2.17;;;;;;;1.28;100.00;100453.34;5008768;28;20053;-74
2023/02/05 01:00:17;;;;;;;3.30;2.30;;;;;;;1.43;100.00;100470.50;5008952;28;20096;-75
2023/02/05 01:02:43;;;;;;;3.03;2.00;;;;;;;1.37;100.00;100468.41;5008354;28;20046;-69
2023/02/05 01:05:08;;;;;;;2.77;1.90;;;;;;;1.13;100.00;100431.84;5005834;28;20053;-69
2023/02/05 01:07:34;;;;;;;3.60;2.23;;;;;;;1.27;100.00;100463.38;5006953;28;20427;-70
2023/02/05 01:09:59;;;;;;;3.87;2.20;;;;;;;1.03;100.00;100414.16;5007212;28;20030;-70
2023/02/05 01:12:25;;;;;;;3.20;2.17;;;;;;;1.35;100.00;100471.59;5008100;28;20038;-70
2023/02/05 01:14:52;;;;;;;4.50;2.63;;;;;;;1.44;100.00;100473.16;5008262;28;20069;-70
2023/02/05 01:17:17;;;;;;;3.60;2.20;;;;;;;1.41;100.00;100478.03;5007164;28;20052;-70
2023/02/05 01:19:43;;;;;;;4.27;2.60;;;;;;;1.42;100.00;100478.91;5007681;28;20416;-70
2023/02/05 01:22:10;;;;;;;3.37;2.20;;;;;;;1.36;100.00;100474.25;5008301;28;20044;-69
2023/02/05 01:24:36;;;;;;;3.97;2.40;;;;;;;1.23;100.00;100448.69;5039151;28;20558;-69
2023/02/05 01:27:02;;;;;;;3.87;2.37;;;;;;;1.33;100.00;100479.09;5050520;28;20064;-68
2023/02/05 01:29:28;;;;;;;4.07;2.43;;;;;;;1.39;100.00;100486.31;5050398;28;20467;-70
2023/02/05 01:31:54;;;;;;;3.30;2.27;;;;;;;1.17;100.00;100455.84;5050488;28;20048;-70
2023/02/05 01:34:20;;;;;;;4.97;3.17;;;;;;;1.37;100.00;100493.84;5050571;28;20025;-68
2023/02/05 01:36:45;;;;;;;4.30;2.60;;;;;;;1.38;100.00;100497.25;5049983;28;20046;-69
2023/02/05 01:39:11;;;;;;;3.93;2.63;;;;;;;1.39;100.00;100499.03;5049253;28;20040;-66
2023/02/05 01:41:36;;;;;;;4.40;2.97;;;;;;;1.39;100.00;100505.00;5014951;28;20040;-67
2023/02/05 01:44:09;;;;;;;4.37;2.53;;;;;;;1.41;100.00;100500.91;5047272;28;21718;-67
2023/02/05 01:46:37;;;;;;;4.00;2.60;;;;;;;1.38;100.00;100504.88;4978996;28;20048;-67
2023/02/05 01:49:04;;;;;;;4.40;2.60;;;;;;;1.43;100.00;100507.00;5049903;28;20021;-67
2023/02/05 01:51:32;;;;;;;5.07;2.73;;;;;;;1.19;100.00;100467.91;5049779;28;20463;-67
2023/02/05 01:53:58;;;;;;;4.40;2.80;;;;;;;1.44;100.00;100507.88;5032077;28;20037;-68
2023/02/05 01:56:30;;;;;;;4.60;2.90;;;;;;;1.51;100.00;100521.94;5050358;28;20111;-68
2023/02/05 01:59:02;;;;;;;5.30;3.30;;;;;;;1.43;100.00;100517.19;5049459;28;20024;-68
2023/02/05 02:01:28;;;;;;;5.03;2.93;;;;;;;1.49;100.00;100520.97;5049706;28;20035;-68
2023/02/05 02:03:55;;;;;;;4.83;2.90;;;;;;;1.50;100.00;100517.66;5045503;28;20049;-67
2023/02/05 02:06:21;;;;;;;4.70;2.80;;;;;;;1.40;100.00;100521.16;5029588;28;20414;-70
2023/02/05 02:08:46;;;;;;;4.97;3.03;;;;;;;1.47;100.00;100525.03;5030115;28;20030;-69
2023/02/05 02:11:16;;;;;;;6.53;3.90;;;;;;;1.41;100.00;100531.44;5029997;28;20458;-69
2023/02/05 02:13:44;;;;;;;5.43;3.00;;;;;;;1.48;100.00;100535.31;5030268;28;20427;-68
2023/02/05 02:16:11;;;;;;;4.17;2.50;;;;;;;1.48;100.00;100539.53;5029817;28;20115;-68
2023/02/05 02:18:38;;;;;;;4.77;3.00;;;;;;;1.24;100.00;100497.09;5030265;28;20036;-70
2023/02/05 02:21:06;;;;;;;4.47;2.60;;;;;;;1.54;100.00;100551.03;5030055;28;20057;-71
2023/02/05 02:23:49;;;;;;;4.70;3.00;;;;;;;1.41;100.00;100548.38;5030158;28;20030;-69
2023/02/05 02:26:52;;;;;;;5.00;2.90;;;;;;;1.49;100.00;100565.09;5029975;28;20025;-70
2023/02/05 02:29:36;;;;;;;4.47;2.87;;;;;;;1.49;100.00;100567.63;5030133;28;20025;-70
2023/02/05 02:32:30;;;;;;;5.40;3.50;;;;;;;1.17;100.00;100511.81;5032630;28;20491;-70
2023/02/05 02:35:22;;;;;;;6.03;3.03;;;;;;;1.46;100.00;100562.31;4925338;29;20071;-71
2023/02/05 02:38:21;;;;;;;5.93;2.77;;;;;;;1.44;100.00;100559.63;4934477;29;20455;-70
2023/02/05 02:40:53;;;;;;;4.60;2.70;;;;;;;1.33;100.00;100567.25;4858960;29;20061;-71
2023/02/05 02:43:53;;;;;;;5.13;2.73;;;;;;;1.33;100.00;100557.06;4859334;29;20524;-70
2023/02/05 02:46:35;;;;;;;4.10;2.63;;;;;;;1.22;100.00;100549.53;4859091;29;20599;-71
2023/02/05 02:49:04;;;;;;;5.83;2.80;;;;;;;1.32;100.00;100563.84;4858822;29;20037;-70
2023/02/05 02:51:32;;;;;;;4.15;2.55;;;;;;;1.36;100.00;100564.91;4859291;29;20049;-70
2023/02/05 02:54:02;;;;;;;3.90;2.37;;;;;;;1.40;100.00;100562.72;4859567;29;20128;-68
2023/02/05 02:56:31;;;;;;;5.03;2.67;;;;;;;1.38;100.00;100571.91;4859485;29;20401;-69
2023/02/05 02:59:15;;;;;;;4.13;2.45;;;;;;;1.10;100.00;100523.19;4859345;29;20521;-69
2023/02/05 03:01:43;;;;;;;3.87;2.40;;;;;;;1.30;100.00;100552.66;4859232;29;20029;-70
2023/02/05 03:04:13;;;;;;;3.63;2.10;;;;;;;1.53;100.00;100581.47;4864533;29;20092;-69
2023/02/05 03:06:42;;;;;;;3.60;2.50;;;;;;;1.52;100.00;100585.69;4877443;29;20053;-69
2023/02/05 03:09:16;;;;;;;4.13;2.47;;;;;;;1.47;100.00;100578.47;4877729;29;20209;-69
2023/02/05 03:11:42;;;;;;;3.60;2.47;;;;;;;1.43;100.00;100575.69;4897765;29;20570;-69
2023/02/05 03:14:07;;;;;;;3.97;2.40;;;;;;;1.37;100.00;100577.78;4934243;29;20160;-69
2023/02/05 03:16:33;;;;;;;3.83;2.03;;;;;;;1.30;100.00;100580.63;4944028;28;20055;-69
2023/02/05 03:18:59;;;;;;;3.80;1.60;;;;;;;1.22;100.00;100587.69;5013907;28;20029;-69
2023/02/05 03:21:29;;;;;;;2.63;1.40;;;;;;;1.06;100.00;100566.91;5014032;28;20030;-69
2023/02/05 03:23:55;;;;;;;1.13;1.03;;;;;;;1.03;100.00;100587.03;4996975;28;20377;-70
2023/02/05 03:26:27;;;;;;;1.13;0.83;;;;;;;0.77;100.00;100553.78;5013537;28;20109;-69
2023/02/05 03:28:53;;;;;;;1.27;1.00;;;;;;;0.86;100.00;100584.09;4962843;28;20058;-69
2023/02/05 03:31:27;;;;;;;1.10;1.00;;;;;;;0.96;100.00;100598.41;5014149;28;20372;-69
2023/02/05 03:34:19;;;;;;;0.80;0.80;;;;;;;1.02;100.00;100603.94;5013657;28;20030;-69
2023/02/05 03:37:04;;;;;;;1.20;1.00;;;;;;;1.05;100.00;100598.22;4952889;28;20659;-69
2023/02/05 03:39:50;;;;;;;1.13;0.90;;;;;;;1.00;100.00;100604.56;4936743;28;20518;-70
2023/02/05 03:42:21;;;;;;;0.80;0.80;;;;;;;1.01;100.00;100612.34;4952509;28;20065;-69
2023/02/05 03:44:52;;;;;;;1.57;0.90;;;;;;;1.08;100.00;100611.16;4952788;28;20118;-70
2023/02/05 03:47:44;;;;;;;1.23;1.07;;;;;;;1.03;100.00;100615.88;4952794;28;20445;-69
2023/02/05 03:50:32;;;;;;;0.90;0.90;;;;;;;0.96;100.00;100611.13;4952867;28;20114;-69
2023/02/05 03:53:15;;;;;;;1.10;1.00;;;;;;;0.98;100.00;100623.94;4952625;28;20521;-69
2023/02/05 03:55:47;;;;;;;1.87;1.27;;;;;;;0.92;100.00;100631.94;4952658;28;20138;-69
2023/02/05 03:58:22;;;;;;;2.00;1.17;;;;;;;0.75;100.00;100613.75;4952616;29;20146;-69
2023/02/05 04:00:48;;;;;;;1.63;1.30;;;;;;;0.85;100.00;100628.06;4952221;29;20090;-69
2023/02/05 04:03:14;;;;;;;1.10;1.00;;;;;;;0.83;100.00;100631.25;4952443;28;20505;-69
2023/02/05 04:05:40;;;;;;;2.07;1.67;;;;;;;0.78;100.00;100639.38;4952315;29;20058;-69
2023/02/05 04:08:05;;;;;;;1.80;1.20;;;;;;;0.71;100.00;100634.59;4952234;29;20087;-69
2023/02/05 04:10:31;;;;;;;1.40;1.20;;;;;;;0.70;100.00;100645.53;4952395;29;20081;-69
2023/02/05 04:12:56;;;;;;;2.17;1.40;;;;;;;0.70;100.00;100634.47;4972356;28;20045;-69
2023/02/05 04:15:22;;;;;;;3.27;1.53;;;;;;;0.67;100.00;100642.72;5032777;28;20025;-69
2023/02/05 04:17:47;;;;;;;7.40;1.80;;;;;;;0.69;100.00;100647.97;5032896;28;20103;-69
2023/02/05 04:20:13;;;;;;;3.77;2.03;;;;;;;0.41;100.00;100611.09;5032693;28;20472;-69
2023/02/05 04:22:38;;;;;;;3.37;1.80;;;;;;;0.52;100.00;100647.47;5037447;28;20037;-70
2023/02/05 04:25:04;;;;;;;2.73;1.80;;;;;;;0.56;100.00;100638.44;5052273;28;20533;-69
2023/02/05 04:27:29;;;;;;;2.50;1.70;;;;;;;0.44;100.00;100654.50;5052509;28;20527;-69
2023/02/05 04:29:55;;;;;;;5.27;2.00;;;;;;;0.23;100.00;100655.31;5052364;28;20411;-69
2023/02/05 04:32:20;;;;;;;3.03;2.13;;;;;;;0.34;100.00;100669.75;5051739;28;20112;-69
2023/02/05 04:34:45;;;;;;;4.83;2.20;;;;;;;0.30;100.00;100672.81;5052233;28;20024;-69
2023/02/05 04:37:11;;;;;;;3.13;1.83;;;;;;;0.19;100.00;100683.72;5052223;28;20025;-70
2023/02/05 04:39:36;;;;;;;4.00;1.90;;;;;;;0.08;100.00;100673.59;5051875;28;20111;-69
2023/02/05 04:42:02;;;;;;;5.40;2.43;;;;;;;0.19;100.00;100691.34;5052285;28;20060;-69
2023/02/05 04:44:27;;;;;;;3.53;2.10;;;;;;;0.15;100.00;100696.19;5051977;28;20111;-69
2023/02/05 04:46:53;;;;;;;4.93;3.23;;;;;;;0.14;100.00;100699.50;5052035;28;20028;-69
2023/02/05 04:49:19;;;;;;;5.47;2.97;;;;;;;0.14;100.00;100711.31;5051476;28;20025;-69
2023/02/05 04:51:44;;;;;;;4.13;2.50;;;;;;;0.14;100.00;100711.31;5051511;28;20060;-69
2023/02/05 04:54:09;;;;;;;4.50;2.77;;;;;;;0.11;100.00;100717.03;5050997;28;20025;-69
2023/02/05 04:56:35;;;;;;;4.13;2.67;;;;;;;0.12;100.00;100716.22;5016675;28;20041;-68
2023/02/05 04:59:00;;;;;;;5.43;2.37;;;;;;;0.10;100.00;100720.31;5051138;28;20534;-69
2023/02/05 05:01:26;;;;;;;4.13;2.93;;;;;;;0.06;100.00;100709.78;5051922;28;20035;-69
2023/02/05 05:03:51;;;;;;;4.57;2.80;;;;;;;0.15;100.00;100724.13;5051462;28;20052;-69
2023/02/05 05:06:18;;;;;;;3.77;2.47;;;;;;;0.10;100.00;100721.94;5051535;28;20039;-68
2023/02/05 05:08:43;;;;;;;4.40;2.70;;;;;;;0.21;100.00;100733.00;5051531;28;20037;-69
2023/02/05 05:11:12;;;;;;;2.90;2.20;;;;;;;0.13;100.00;100737.44;5051770;28;20063;-69
2023/02/05 05:13:57;;;;;;;4.63;2.90;;;;;;;0.04;100.00;100727.41;5051790;28;20083;-69
2023/02/05 05:16:23;;;;;;;4.93;2.73;;;;;;;0.15;100.00;100738.47;5028783;28;20041;-69
2023/02/05 05:18:50;;;;;;;3.53;2.47;;;;;;;0.06;100.00;100758.00;5012263;28;20052;-69
2023/02/05 05:21:16;;;;;;;4.90;2.80;;;;;;;-0.11;100.00;100748.97;5028960;28;20048;-68
2023/02/05 05:23:41;;;;;;;4.97;2.90;;;;;;;-0.02;100.00;100773.47;5011938;28;20123;-68
2023/02/05 05:26:10;;;;;;;4.90;2.93;;;;;;;-0.27;100.00;100723.97;5028994;28;20588;-68
2023/02/05 05:28:36;;;;;;;5.03;2.42;;;;;;;-0.02;100.00;100776.00;5028910;28;20534;-67
2023/02/05 05:31:18;;;;;;;5.73;2.70;;;;;;;-0.05;100.00;100780.84;5028820;28;20215;-68
2023/02/05 05:33:43;;;;;;;4.03;2.50;;;;;;;-0.06;100.00;100791.75;5029084;28;20033;-68
2023/02/05 05:36:09;;;;;;;5.57;3.27;;;;;;;-0.08;100.00;100788.19;5028929;28;20408;-68
2023/02/05 05:38:34;;;;;;;4.73;2.70;;;;;;;-0.07;100.00;100794.16;5028957;28;20022;-68
2023/02/05 05:43:46;;;;;;;12.00;5.87;;;;;;;-0.09;100.00;100790.59;5028848;28;20478;-68
2023/02/05 05:46:14;;;;;;;22.17;13.33;;;;;;;-0.11;100.00;100790.47;5029013;28;20034;-68
2023/02/05 05:48:40;;;;;;;6.93;4.67;;;;;;;-0.18;100.00;100785.63;5032382;28;20041;-68
2023/02/05 05:51:06;;;;;;;6.30;3.17;;;;;;;-0.18;100.00;100796.66;5050859;28;20086;-68
2023/02/05 05:53:31;;;;;;;5.17;3.00;;;;;;;-0.41;100.00;100748.16;5050872;28;20031;-68
2023/02/05 05:55:57;;;;;;;5.87;2.30;;;;;;;-0.29;100.00;100793.97;5051023;28;20475;-68
2023/02/05 05:58:22;;;;;;;8.47;2.80;;;;;;;-0.32;100.00;100804.75;5050917;28;20025;-69
2023/02/05 06:00:48;;;;;;;4.50;2.90;;;;;;;-0.35;100.00;100794.34;5050461;28;20033;-69
2023/02/05 06:03:14;;;;;;;4.40;2.47;;;;;;;-0.35;100.00;100799.41;5050920;28;20086;-69
2023/02/05 06:05:39;;;;;;;5.30;2.67;;;;;;;-0.40;99.56;100799.03;5051006;28;20140;-69
2023/02/05 06:08:05;;;;;;;4.70;2.50;;;;;;;-0.46;99.09;100812.81;5050889;28;20399;-68
2023/02/05 06:10:31;;;;;;;7.23;3.27;;;;;;;-0.47;99.58;100811.03;5050780;28;20040;-68
2023/02/05 06:12:57;;;;;;;3.67;2.17;;;;;;;-0.54;99.83;100815.56;5050857;28;20033;-68
2023/02/05 06:15:23;;;;;;;7.23;4.00;;;;;;;-0.69;100.00;100793.97;5032793;28;20537;-68
2023/02/05 06:17:48;;;;;;;13.47;6.47;;;;;;;-0.82;100.00;100775.16;5050321;28;20032;-68
2023/02/05 06:20:34;;;;;;;5.30;3.27;;;;;;;-0.69;100.00;100796.50;5027918;28;20052;-68
2023/02/05 06:22:59;;;;;;;4.10;2.60;;;;;;;-0.66;100.00;100805.28;5028296;28;20042;-68
2023/02/05 06:25:25;;;;;;;5.37;3.10;;;;;;;-0.63;99.48;100840.16;5028240;28;20049;-68
2023/02/05 06:27:50;;;;;;;5.03;2.63;;;;;;;-0.62;99.54;100829.25;5028232;28;20494;-68
2023/02/05 06:30:15;;;;;;;3.93;2.60;;;;;;;-0.60;100.00;100821.78;5028260;28;20050;-68
2023/02/05 06:32:41;;;;;;;4.93;3.03;;;;;;;-0.60;99.81;100830.25;5028164;28;20040;-68
2023/02/05 06:35:06;;;;;;;3.83;2.40;;;;;;;-0.64;98.99;100830.75;5028204;28;20140;-68
2023/02/05 06:37:32;;;;;;;7.33;4.80;;;;;;;-0.64;99.02;100840.03;5028258;28;20040;-68
2023/02/05 06:39:57;;;;;;;4.33;2.90;;;;;;;-0.61;98.32;100835.19;5028019;28;20144;-68
2023/02/05 06:42:23;;;;;;;5.73;3.13;;;;;;;-0.85;98.04;100806.94;5028205;28;20562;-68
2023/02/05 06:44:48;;;;;;;6.43;3.13;;;;;;;-0.64;99.02;100827.34;5028105;28;20484;-68
2023/02/05 06:47:13;;;;;;;9.37;3.40;;;;;;;-0.59;99.63;100839.66;5028025;28;20631;-68
2023/02/05 06:49:39;;;;;;;5.63;3.27;;;;;;;-0.59;98.44;100836.25;4994911;28;20050;-68
2023/02/05 06:52:04;;;;;;;4.70;2.97;;;;;;;-0.51;99.19;100850.50;5043814;28;20120;-68
2023/02/05 06:54:31;;;;;;;5.43;3.10;;;;;;;-0.61;97.82;100850.41;5032358;28;20055;-68
2023/02/05 06:56:56;;;;;;;3.60;2.90;;;;;;;-0.81;96.62;100801.38;5015019;28;20037;-68
2023/02/05 06:59:21;;;;;;;5.47;3.20;;;;;;;-0.55;97.31;100858.56;5050332;28;20025;-68
2023/02/05 07:01:47;;;;;;;5.10;2.70;;;;;;;-0.50;96.33;100868.38;5050294;28;20037;-68
2023/02/05 07:04:13;;;;;;;5.50;2.90;;;;;;;-0.45;96.51;100890.69;5050236;28;20049;-68
2023/02/05 07:06:38;;;;;;;6.03;3.03;;;;;;;-0.44;97.23;100892.47;5050072;28;20431;-68
2023/02/05 07:09:04;;;;;;;4.90;2.93;;;;;;;-0.39;97.03;100896.31;5050321;28;20040;-68
2023/02/05 07:11:29;;;;;;;5.13;2.77;;;;;;;-0.40;96.01;100895.44;5049713;28;20037;-68
2023/02/05 07:13:54;;;;;;;3.93;2.70;;;;;;;-0.40;94.78;100915.72;5050116;28;20025;-68
2023/02/05 07:16:20;;;;;;;6.40;3.20;;;;;;;-0.42;94.35;100907.06;5050019;28;20037;-68
2023/02/05 07:18:46;;;;;;;4.13;2.40;;;;;;;-0.44;94.76;100905.16;5053764;28;20063;-68
2023/02/05 07:21:15;;;;;;;5.37;3.33;;;;;;;-0.37;95.27;100907.50;5053786;28;20124;-68
2023/02/05 07:23:41;;;;;;;5.68;3.92;;;;;;;-0.39;95.35;100917.47;5053934;28;20040;-68
2023/02/05 07:26:13;;;;;;;4.53;2.53;;;;;;;-0.58;95.14;100891.28;5054177;28;20031;-68
2023/02/05 07:28:40;;;;;;;6.17;3.80;;;;;;;-0.28;96.44;100931.13;5035972;28;20411;-68
2023/02/05 07:31:10;;;;;;;5.73;2.63;;;;;;;-0.40;94.58;100923.34;5053786;28;20095;-67
2023/02/05 07:33:36;;;;;;;2.83;2.03;;;;;;;-0.31;94.53;100935.94;5053738;28;20027;-67
2023/02/05 07:36:03;;;;;;;5.90;2.40;;;;;;;-0.58;95.30;100892.16;5053851;28;20479;-67
2023/02/05 07:38:29;;;;;;;6.90;3.80;;;;;;;-0.30;95.91;100940.22;5053392;28;20067;-68
2023/02/05 07:40:54;;;;;;;5.30;2.93;;;;;;;-0.34;93.86;100938.19;5053198;28;20029;-68
2023/02/05 07:43:19;;;;;;;12.17;6.53;;;;;;;-0.31;94.60;100943.53;5053299;28;20122;-68
2023/02/05 07:45:45;;;;;;;9.73;7.10;;;;;;;-0.23;95.99;100939.13;5053367;28;20029;-68
2023/02/05 07:48:10;;;;;;;7.30;4.77;;;;;;;-0.17;95.37;100953.25;5053248;28;20025;-68
2023/02/05 07:50:36;;;;;;;7.50;3.97;;;;;;;-0.45;94.88;100908.44;5053736;28;20025;-68
2023/02/05 07:53:01;;;;;;;4.43;3.40;;;;;;;-0.14;94.90;100951.75;5053329;28;20021;-68
2023/02/05 07:55:28;;;;;;;3.83;2.43;;;;;;;-0.10;94.73;100954.69;5053334;28;20025;-68
2023/02/05 07:57:53;;;;;;;6.13;3.30;;;;;;;-0.17;92.64;100980.28;5007817;28;20038;-68
2023/02/05 08:00:19;;;;;;;4.90;3.27;;;;;;;-0.22;93.86;100954.50;5010763;28;20088;-68
2023/02/05 08:02:44;;;;;;;5.43;3.60;;;;;;;-0.10;93.43;100974.09;5010686;28;20038;-68
2023/02/05 08:05:10;;;;;;;4.53;3.13;;;;;;;-0.01;94.96;100972.38;5010879;28;20069;-68
2023/02/05 08:07:36;;;;;;;5.00;3.20;;;;;;;-0.02;93.56;100966.38;4994383;28;20050;-68
2023/02/05 08:10:03;;;;;;;4.43;2.97;;;;;;;0.16;95.70;100983.97;5010680;28;20129;-68
2023/02/05 08:12:28;;;;;;;4.17;2.40;;;;;;;-0.03;94.60;100956.97;5010591;28;20042;-68
2023/02/05 08:14:54;;;;;;;5.30;2.73;;;;;;;-0.38;92.80;100900.63;5010790;28;20084;-68
2023/02/05 08:17:19;;;;;;;8.37;4.23;;;;;;;-0.02;94.30;100973.13;5010675;28;20085;-68
2023/02/05 08:19:45;;;;;;;5.20;2.87;;;;;;;0.09;93.32;100959.72;5010650;28;20100;-68
2023/02/05 08:22:10;;;;;;;5.23;2.47;;;;;;;0.15;92.94;100970.41;5010532;28;20857;-68
2023/02/05 08:24:36;;;;;;;5.50;3.00;;;;;;;0.04;92.03;100938.13;4999282;28;20174;-68
2023/02/05 08:27:01;;;;;;;4.70;3.00;;;;;;;0.36;91.79;100975.53;4974687;28;20084;-68
2023/02/05 08:29:27;;;;;;;4.20;2.90;;;;;;;0.33;91.37;100998.13;5020465;28;20045;-68
2023/02/05 08:31:52;;;;;;;6.57;4.50;;;;;;;0.27;91.03;100973.09;5032497;28;20510;-68
2023/02/05 08:34:18;;;;;;;7.80;5.47;;;;;;;0.22;91.00;100973.47;5032689;28;20033;-68
2023/02/05 08:36:43;;;;;;;6.93;4.57;;;;;;;0.33;90.30;100980.34;5032466;28;20026;-68
2023/02/05 08:39:08;;;;;;;5.03;2.83;;;;;;;0.53;88.89;100989.69;5032456;28;20017;-68
2023/02/05 08:41:36;;;;;;;5.10;3.60;;;;;;;0.27;89.46;100960.38;5032278;28;20534;-68
2023/02/05 08:44:02;;;;;;;3.93;2.97;;;;;;;0.62;89.67;100993.03;5032193;28;20029;-68
2023/02/05 08:46:27;;;;;;;5.83;3.80;;;;;;;0.74;88.61;101008.41;5032516;28;20694;-68
2023/02/05 08:48:53;;;;;;;8.93;4.47;;;;;;;0.83;88.40;101005.75;5032088;28;20025;-68
2023/02/05 08:51:21;;;;;;;2.97;2.20;;;;;;;0.81;87.22;101002.22;5032026;28;20039;-68
2023/02/05 08:53:47;;;;;;;4.93;3.30;;;;;;;0.67;87.91;100969.66;5032320;28;20040;-68
2023/02/05 08:56:14;;;;;;;5.53;3.70;;;;;;;0.87;88.14;101017.94;5028820;28;20029;-68
2023/02/05 08:58:41;;;;;;;6.27;2.57;;;;;;;0.93;87.86;101030.31;5012974;28;20057;-68
2023/02/05 09:01:12;;;;;;;6.13;2.80;;;;;;;0.57;88.17;100978.13;5032099;28;20032;-68
2023/02/05 09:03:38;;;;;;;6.90;3.07;;;;;;;0.73;88.07;101033.69;5031767;28;20464;-68
2023/02/05 09:06:07;;;;;;;5.40;3.37;;;;;;;0.61;87.45;101038.59;5032191;28;20056;-68
2023/02/05 09:08:33;;;;;;;7.03;3.20;;;;;;;0.65;88.77;101027.97;5031636;28;20509;-68
2023/02/05 09:10:59;;;;;;;3.20;2.10;;;;;;;0.59;86.30;101022.34;5032015;28;20029;-68
2023/02/05 09:13:25;;;;;;;4.47;2.60;;;;;;;0.61;88.18;101033.53;5031815;28;20120;-68
2023/02/05 09:15:50;;;;;;;4.67;2.60;;;;;;;0.76;88.07;101034.84;5031469;28;20036;-68
2023/02/05 09:18:16;;;;;;;4.03;2.47;;;;;;;0.77;87.72;101023.03;5031516;28;20479;-68
2023/02/05 09:20:45;;;;;;;4.50;2.63;;;;;;;0.69;87.82;101027.47;5031328;28;20083;-68
2023/02/05 09:23:12;;;;;;;4.85;2.70;;;;;;;0.76;87.34;101039.94;5031664;28;20471;-69
2023/02/05 09:25:39;;;;;;;5.50;3.00;;;;;;;0.63;87.67;101030.34;5031455;28;20498;-68
2023/02/05 09:28:09;;;;;;;4.73;2.70;;;;;;;0.63;88.04;101039.63;5031751;28;20029;-68
2023/02/05 09:30:36;;;;;;;3.03;1.90;;;;;;;0.69;89.01;101040.16;5031390;28;20148;-68
2023/02/05 09:33:02;;;;;;;5.80;2.93;;;;;;;0.21;88.36;100957.31;5031258;28;20044;-68
2023/02/05 09:35:27;;;;;;;4.53;2.60;;;;;;;0.82;87.83;101046.28;5031545;28;20037;-68
2023/02/05 09:37:53;;;;;;;4.37;2.87;;;;;;;1.01;87.78;101048.75;5031403;28;20543;-68
2023/02/05 09:40:22;;;;;;;4.40;2.90;;;;;;;1.08;87.40;101051.91;5030987;28;20033;-68
2023/02/05 09:43:13;;;;;;;5.60;3.53;;;;;;;0.90;86.97;101038.56;5031199;28;20068;-68
2023/02/05 09:45:54;;;;;;;4.63;2.37;;;;;;;0.93;86.16;101040.47;5031172;28;20029;-69
2023/02/05 09:48:38;;;;;;;3.57;2.13;;;;;;;0.88;86.14;101040.06;5031042;28;20036;-68
2023/02/05 09:51:04;;;;;;;4.40;2.10;;;;;;;0.99;85.31;101052.81;5031104;28;20025;-68
2023/02/05 09:53:39;;;;;;;4.07;2.97;;;;;;;0.85;85.23;101013.50;5031190;28;20033;-68
2023/02/05 09:56:07;;;;;;;4.47;2.63;;;;;;;0.96;85.50;101020.41;5031201;28;20032;-69
2023/02/05 09:58:38;;;;;;;5.47;2.90;;;;;;;1.23;84.09;101059.06;5031072;28;20157;-68
2023/02/05 10:01:11;;;;;;;3.47;2.50;;;;;;;1.09;82.49;101058.78;5031169;28;20036;-68
2023/02/05 10:03:45;;;;;;;5.63;2.53;;;;;;;1.20;83.12;101052.06;5030931;28;20457;-68
2023/02/05 10:06:35;;;;;;;5.03;3.63;;;;;;;1.16;81.34;101055.13;5030984;28;20455;-68
2023/02/05 10:09:19;;;;;;;4.00;2.50;;;;;;;1.18;82.13;101047.63;5030935;28;20056;-68
2023/02/05 10:12:05;;;;;;;3.63;2.60;;;;;;;0.92;82.37;101013.25;5030901;28;20095;-67
2023/02/05 10:14:52;;;;;;;3.43;2.10;;;;;;;1.26;80.38;101052.59;5013058;28;20399;-67
2023/02/05 10:17:55;;;;;;;4.03;2.60;;;;;;;1.36;80.82;101039.00;5030658;28;20037;-67
2023/02/05 10:20:32;;;;;;;5.53;2.80;;;;;;;1.44;81.08;101050.66;5026626;28;20412;-67
2023/02/05 10:23:23;;;;;;;6.67;3.20;;;;;;;1.54;78.83;101064.16;5030721;28;20033;-68
2023/02/05 10:26:22;;;;;;;4.53;2.43;;;;;;;1.54;79.39;101067.59;5030690;28;20156;-68
2023/02/05 10:29:06;;;;;;;6.00;2.87;;;;;;;1.59;79.06;101057.81;4950199;29;20046;-68
2023/02/05 10:31:40;;;;;;;3.37;2.00;;;;;;;1.56;77.18;101062.66;4950127;29;20031;-68
2023/02/05 10:34:34;;;;;;;4.10;2.60;;;;;;;1.60;76.16;101060.47;4950210;29;20533;-68
2023/02/05 10:37:03;;;;;;;3.23;2.00;;;;;;;1.41;74.54;101055.53;4950471;29;20650;-68
2023/02/05 10:39:30;;;;;;;4.90;2.20;;;;;;;1.52;74.56;101070.78;4949982;29;20106;-68
2023/02/05 10:42:04;;;;;;;4.33;1.90;;;;;;;1.64;76.35;101070.91;4950201;29;20620;-68
2023/02/05 10:44:33;;;;;;;2.77;1.60;;;;;;;1.39;73.06;101072.31;4950166;29;20063;-68
2023/02/05 10:47:11;;;;;;;4.18;2.83;;;;;;;1.45;74.98;101064.31;4949994;29;20492;-68
2023/02/05 10:50:04;;;;;;;2.00;1.70;;;;;;;1.32;70.94;101069.13;4949938;29;20545;-67
2023/02/05 10:52:30;;;;;;;2.90;2.00;;;;;;;1.32;73.03;101069.13;4895183;29;20411;-67
2023/02/05 10:54:55;;;;;;;3.43;2.13;;;;;;;1.28;72.68;101088.31;4895307;29;20049;-68
2023/02/05 10:57:22;;;;;;;3.33;2.13;;;;;;;1.49;73.83;101068.00;4896636;29;20072;-68
2023/02/05 10:59:57;;;;;;;3.03;1.70;;;;;;;1.59;73.20;101080.69;4896780;29;20045;-68
2023/02/05 11:02:30;;;;;;;4.73;2.50;;;;;;;1.77;75.06;101064.41;4896784;29;20041;-68
2023/02/05 11:05:00;;;;;;;3.63;1.93;;;;;;;1.77;72.46;101056.75;4912253;29;20058;-68
2023/02/05 11:07:37;;;;;;;3.90;2.10;;;;;;;1.98;74.42;101072.03;4918504;29;20550;-68
2023/02/05 11:10:17;;;;;;;4.00;2.40;;;;;;;1.88;73.54;101079.66;4934092;29;20044;-68
2023/02/05 11:12:45;;;;;;;3.73;2.23;;;;;;;1.54;74.41;101059.06;4915431;29;20044;-68
2023/02/05 11:15:26;;;;;;;5.23;3.07;;;;;;;1.39;73.27;101085.03;4915362;29;20040;-68
2023/02/05 11:18:01;;;;;;;2.53;1.90;;;;;;;1.39;74.60;101086.69;4915317;29;20518;-67
2023/02/05 11:20:36;;;;;;;3.57;2.50;;;;;;;1.22;73.41;101029.31;4885912;29;20052;-68
2023/02/05 11:23:22;;;;;;;1.87;1.50;;;;;;;1.65;73.78;101068.47;4915541;29;20047;-67
2023/02/05 11:25:49;;;;;;;3.10;2.00;;;;;;;1.71;73.07;101084.25;4915289;29;20032;-68
2023/02/05 11:28:23;;;;;;;3.47;1.93;;;;;;;1.81;72.96;101082.47;4916348;28;20439;-68
2023/02/05 11:30:49;;;;;;;3.97;2.37;;;;;;;1.55;74.19;101033.75;5013798;28;20030;-68
2023/02/05 11:33:26;;;;;;;3.45;2.28;;;;;;;1.91;74.29;101079.91;5014099;28;20034;-68
2023/02/05 11:36:00;;;;;;;6.50;2.87;;;;;;;1.69;74.24;101097.63;5013664;28;20041;-68
2023/02/05 11:38:42;;;;;;;6.23;2.53;;;;;;;1.22;74.08;101049.66;5013759;28;20034;-68
2023/02/05 11:41:09;;;;;;;4.87;2.93;;;;;;;1.51;75.35;101097.88;5013291;28;20411;-68